windsock image

Welcome to Bigfield Strip.

anemometer image
     

 Help for dials.  
 
Local Met:

Wind:   
10 Min average:  
88 ° / 0.0 kts (0.0)
37° / 0.0

Temperature:  
17.9°C C
Dew Point:  
15.0°C C
QNH:  
Trend:  
1019.5 mb mb
+0.3mb/hr
BigField Strip. This image updates approximately every minute, it can have a two minute delay.  
 

Humidity:  
83 %
Sunrise:   05:15z
Sunset:   18:51z
Updated:  
  UTC
 
   More met info, trends, radar, history etc. available here   

LUTON Metar   EGGW 011750Z 02010KT 9999 BKN007CB 17/15 Q1020
 
  TAF   2014/09/01 18:15 TAF EGGW 011700Z 0118/0218 32008KT 9999 SCT025 BECMG 0123/0202 3000 BR BKN004 PROB40 0203/0207 0300 FG OVC001 BECMG 0207/0210 9999 NSW SCT015
 
BENSON Metar   EGUB 011750Z 33005KT 9999 BKN035 19/16 Q1019 BLU NOSIG
 
  TAF   2014/09/01 18:03 TAF EGUB 011642Z 0118/0202 32006KT 9999 SCT030
 
Big Field view 1 icon   Big Field view 2 icon   Big Field view 3 icon   Chart AL3a in PDF icon   Chart AL3a in Word icon

WARNING:
This information is provided by the Airstrip unofficial weather station, DO NOT depend on the data provided here for any purpose.
This page is updated for latest Metars & TAF's every 5 minutes. Refresh the browser to check for the lastest.
Page designed for a minimum browser size of 1024x768.
© Copyright 2014 BigField Strip. This page auto generated 18:26 UTC - 01/09/2014   Contact Us
Valid HTML 4.01 Transitional     Windows uptime: 0 Days 15 Hours 54 Minutes 29 Seconds    WD started: 02:37 01/09/14    Free memory: 1558MB     Valid CSS!